地図

経路データ

SID SEASON NUMBER BASIN SUBBASIN NAME ISO_TIME NATURE LAT LON WMO_WIND WMO_PRES WMO_AGENCY TRACK_TYPE DIST2LAND LANDFALL IFLAG USA_AGENCY USA_ATCF_ID USA_LAT USA_LON USA_RECORD USA_STATUS USA_WIND USA_PRES USA_SSHS USA_R34_NE USA_R34_SE USA_R34_SW USA_R34_NW USA_R50_NE USA_R50_SE USA_R50_SW USA_R50_NW USA_R64_NE USA_R64_SE USA_R64_SW USA_R64_NW USA_POCI USA_ROCI USA_RMW USA_EYE TOKYO_LAT TOKYO_LON TOKYO_GRADE TOKYO_WIND TOKYO_PRES TOKYO_R50_DIR TOKYO_R50_LONG TOKYO_R50_SHORT TOKYO_R30_DIR TOKYO_R30_LONG TOKYO_R30_SHORT TOKYO_LAND CMA_LAT CMA_LON CMA_CAT CMA_WIND CMA_PRES HKO_LAT HKO_LON HKO_CAT HKO_WIND HKO_PRES NEWDELHI_LAT NEWDELHI_LON NEWDELHI_GRADE NEWDELHI_WIND NEWDELHI_PRES NEWDELHI_CI NEWDELHI_DP NEWDELHI_POCI REUNION_LAT REUNION_LON REUNION_TYPE REUNION_WIND REUNION_PRES REUNION_TNUM REUNION_CI REUNION_RMW REUNION_R34_NE REUNION_R34_SE REUNION_R34_SW REUNION_R34_NW REUNION_R50_NE REUNION_R50_SE REUNION_R50_SW REUNION_R50_NW REUNION_R64_NE REUNION_R64_SE REUNION_R64_SW REUNION_R64_NW BOM_LAT BOM_LON BOM_TYPE BOM_WIND BOM_PRES BOM_TNUM BOM_CI BOM_RMW BOM_R34_NE BOM_R34_SE BOM_R34_SW BOM_R34_NW BOM_R50_NE BOM_R50_SE BOM_R50_SW BOM_R50_NW BOM_R64_NE BOM_R64_SE BOM_R64_SW BOM_R64_NW BOM_ROCI BOM_POCI BOM_EYE BOM_POS_METHOD BOM_PRES_METHOD NADI_LAT NADI_LON NADI_CAT NADI_WIND NADI_PRES WELLINGTON_LAT WELLINGTON_LON WELLINGTON_WIND WELLINGTON_PRES DS824_LAT DS824_LON DS824_STAGE DS824_WIND DS824_PRES TD9636_LAT TD9636_LON TD9636_STAGE TD9636_WIND TD9636_PRES TD9635_LAT TD9635_LON TD9635_WIND TD9635_PRES TD9635_ROCI NEUMANN_LAT NEUMANN_LON NEUMANN_CLASS NEUMANN_WIND NEUMANN_PRES MLC_LAT MLC_LON MLC_CLASS MLC_WIND MLC_PRES USA_GUST BOM_GUST BOM_GUST_PER REUNION_GUST REUNION_GUST_PER USA_SEAHGT USA_SEARAD_NE USA_SEARAD_SE USA_SEARAD_SW USA_SEARAD_NW STORM_SPEED STORM_DIR
1946276N16092 1946 58 NI BB NOT_NAMED 1946-10-02 18:00:00 TS 15.8000 91.6000 main 279 278 O________O____ jtwc_io IO121946 15.8000 91.6000 -1 15.8000 91.6000 TC 2 348
1946276N16092 1946 58 NI BB NOT_NAMED 1946-10-02 21:00:00 TS 15.8775 91.5825 main 278 278 P________P____ IO121946 15.8775 91.5825 -1 15.8775 91.5825 TC 2 333
1946276N16092 1946 58 NI BB NOT_NAMED 1946-10-03 00:00:00 TS 16.0000 91.5000 main 288 288 O________O____ jtwc_io IO121946 16.0000 91.5000 -1 16.0000 91.5000 TC 25 4 321
1946276N16092 1946 58 NI BB NOT_NAMED 1946-10-03 03:00:00 TS 16.2044 91.3021 main 310 310 P________PO___ IO121946 16.2050 91.3024 -1 16.2050 91.3024 TC 25 16.2000 91.3000 1 7 316
1946276N16092 1946 58 NI BB NOT_NAMED 1946-10-03 06:00:00 TS 16.5208 90.9835 main 346 346 O________OP___ jtwc_io IO121946 16.5000 91.0000 -1 16.5000 91.0000 TC 25 16.6038 90.9176 1 10 316
1946276N16092 1946 58 NI BB NOT_NAMED 1946-10-03 09:00:00 TS 16.9235 90.5859 main 396 396 P________PP___ IO121946 16.9002 90.6003 -1 16.9002 90.6003 TC 25 16.9858 90.5473 1 11 316
1946276N16092 1946 58 NI BB NOT_NAMED 1946-10-03 12:00:00 TS 17.3083 90.2011 main 415 413 O________OP___ jtwc_io IO121946 17.3000 90.2000 -1 17.3000 90.2000 TC 25 17.3249 90.2034 1 9 316
1946276N16092 1946 58 NI BB NOT_NAMED 1946-10-03 15:00:00 TS 17.5916 89.9182 main 421 421 P________PO___ IO121946 17.5874 89.9273 -1 17.5874 89.9273 TC 25 17.6000 89.9000 1 7 315
1946276N16092 1946 58 NI BB NOT_NAMED 1946-10-03 18:00:00 TS 17.8012 89.6819 main 421 398 O________OP___ jtwc_io IO121946 17.8000 89.7000 -1 17.8000 89.7000 TC 25 17.8037 89.6458 1 6 308
1946276N16092 1946 58 NI BB NOT_NAMED 1946-10-03 21:00:00 TS 17.9407 89.4416 main 390 359 P________PP___ IO121946 17.9200 89.4497 -1 17.9200 89.4497 TC 25 17.9820 89.4255 1 6 306
1946276N16092 1946 58 NI BB NOT_NAMED 1946-10-04 00:00:00 TS 18.1315 89.2058 main 359 314 O________OP___ jtwc_io IO121946 18.1000 89.2000 -1 18.1000 89.2000 TC 25 18.1944 89.2176 1 7 321
1946276N16092 1946 58 NI BB NOT_NAMED 1946-10-04 03:00:00 TS 18.4883 88.9716 main 314 254 P________PO___ IO121946 18.4825 88.9574 -1 18.4825 88.9574 TC 25 18.5000 89.0000 1 10 330
1946276N16092 1946 58 NI BB NOT_NAMED 1946-10-04 06:00:00 TS 18.9930 88.6922 main 254 198 O________OP___ jtwc_io IO121946 19.0000 88.7000 -1 19.0000 88.7000 TC 25 18.9789 88.6765 1 12 332
1946276N16092 1946 58 NI BB NOT_NAMED 1946-10-04 09:00:00 TS 19.5694 88.3679 main 191 127 P________PP___ IO121946 19.5776 88.3778 -1 19.5776 88.3778 TC 25 19.5531 88.3482 1 13 335
1946276N16092 1946 58 NI BB NOT_NAMED 1946-10-04 12:00:00 TS 20.1919 88.0902 main 127 93 O________OP___ jtwc_io IO121946 20.2000 88.1000 -1 20.2000 88.1000 TC 25 20.1757 88.0705 1 13 341
1946276N16092 1946 58 NI BB NOT_NAMED 1946-10-04 15:00:00 TS 20.7949 87.9168 main 93 35 P________PO___ IO121946 20.7924 87.9252 -1 20.7924 87.9252 TC 25 20.8000 87.9000 3 12 352
1946276N16092 1946 58 NI BB NOT_NAMED 1946-10-04 18:00:00 TS 21.4087 87.9052 main 35 0 O________OP___ jtwc_io IO121946 21.4000 87.9000 -1 21.4000 87.9000 TC 25 21.4260 87.9157 3 13 6
1946276N16092 1946 58 NI BB NOT_NAMED 1946-10-04 21:00:00 TS 22.0850 88.0600 main 0 0 P________PP___ IO121946 22.1101 88.0692 -1 22.1101 88.0692 TC 25 22.0348 88.0418 3 13 15
1946276N16092 1946 58 NI BB NOT_NAMED 1946-10-05 00:00:00 TS 22.6587 88.2741 main 0 0 O________OP___ jtwc_io IO121946 22.7000 88.3000 -1 22.7000 88.3000 TC 25 22.5762 88.2223 3 10 20
1946276N16092 1946 58 NI BB NOT_NAMED 1946-10-05 03:00:00 TS 22.9833 88.4152 main 0 0 P________PO___ IO121946 22.9749 88.4228 -1 22.9749 88.4228 TC 25 23.0000 88.4000 1 5 23
1946276N16092 1946 58 NI BB NOT_NAMED 1946-10-05 06:00:00 TS 23.1490 88.4967 main 0 0 O________OP___ jtwc_io IO121946 23.1000 88.5000 -1 23.1000 88.5000 TC 25 23.2471 88.4900 1 3 22
1946276N16092 1946 58 NI BB NOT_NAMED 1946-10-05 09:00:00 TS 23.3024 88.5553 main 0 0 P________PP___ IO121946 23.2650 88.5501 -1 23.2650 88.5501 TC 25 23.3773 88.5657 1 3 21
1946276N16092 1946 58 NI BB NOT_NAMED 1946-10-05 12:00:00 TS 23.4147 88.6112 main 0 0 O________OP___ jtwc_io IO121946 23.4000 88.6000 -1 23.4000 88.6000 TC 25 23.4440 88.6336 1 2 34
1946276N16092 1946 58 NI BB NOT_NAMED 1946-10-05 15:00:00 TS 23.5000 88.7000 main 0 0 P________PO___ IO121946 23.5000 88.7000 -1 23.5000 88.7000 TC 25 23.5000 88.7000 1 2 42
1946276N16092 1946 58 NI BB NOT_NAMED 1946-10-05 18:00:00 TS 23.5951 88.7881 main 0 0 O________OP___ jtwc_io IO121946 23.6000 88.8000 -1 23.6000 88.8000 TC 25 23.5879 88.7703 1 3 32
1946276N16092 1946 58 NI BB NOT_NAMED 1946-10-05 21:00:00 TS 23.7247 88.8548 main 0 0 P________PP___ IO121946 23.7375 88.8625 -1 23.7375 88.8625 TC 25 23.7076 88.8446 1 3 22
1946276N16092 1946 58 NI BB NOT_NAMED 1946-10-06 00:00:00 TS 23.8743 88.9108 main 0 0 O________OP___ jtwc_io IO121946 23.9000 88.9000 -1 23.9000 88.9000 TC 25 23.8485 88.9215 1 3 25
1946276N16092 1946 58 NI BB NOT_NAMED 1946-10-06 03:00:00 NR 24.0000 89.0000 main 0 __________O___ IO121946 -1 TC 24.0000 89.0000 1 3 32

IBTrACS Databaseについて

本データベースは、米国NOAAが公開する1842年以降の世界の熱帯低気圧のベストトラックデータアーカイブInternational Best Track Archive for Climate Stewardship (IBTrACS)を、ウェブで閲覧しやすい形式に変換したものです。

最終更新日:2021-12-03